Time;durP1;ratioP1;P1;durP2;ratioP2;P2;SDS_P1;SDS_P2;PMS_P1;PMS_P2;Temp;Humidity;BMP_temperature;BMP_pressure;BME280_temperature;BME280_humidity;BME280_pressure;Samples;Min_cycle;Max_cycle;Signal;HPM_P1;HPM_P2
2021/04/28 00:01:56;;;;;;;;;;;7.00;70.90;;;;;;5047103;28;20039;-75
2021/04/28 00:04:22;;;;;;;;;;;7.00;71.00;;;;;;5013670;28;19974;-75
2021/04/28 00:06:48;;;;;;;;;;;6.90;71.10;;;;;;5047757;28;20384;-77
2021/04/28 00:09:16;;;;;;;;;;;6.90;71.90;;;;;;5047021;28;20004;-75
2021/04/28 00:11:44;;;;;;;;;;;6.90;71.30;;;;;;5031072;28;19921;-75
2021/04/28 00:14:09;;;;;;;;;;;6.80;71.10;;;;;;5029923;28;19976;-73
2021/04/28 00:16:35;;;;;;;;;;;6.80;72.40;;;;;;5047703;28;19999;-75
2021/04/28 00:19:00;;;;;;;;;;;6.80;71.30;;;;;;5048542;28;19921;-75
2021/04/28 00:21:27;;;;;;;;;;;6.80;70.90;;;;;;5047308;28;19927;-74
2021/04/28 00:23:52;;;;;;;;;;;6.80;71.10;;;;;;5047984;28;20398;-74
2021/04/28 00:26:17;;;;;;;;;;;6.80;69.90;;;;;;5048962;28;19917;-75
2021/04/28 00:28:43;;;;;;;;;;;6.80;71.50;;;;;;5028733;28;19962;-75
2021/04/28 00:31:09;;;;;;;;;;;6.70;71.90;;;;;;5031914;28;19951;-74
2021/04/28 00:33:34;;;;;;;;;;;6.70;70.90;;;;;;5047804;28;19925;-75
2021/04/28 00:36:02;;;;;;;;;;;6.70;71.50;;;;;;5028862;28;19927;-75
2021/04/28 00:38:28;;;;;;;;;;;6.70;73.10;;;;;;5046469;28;20012;-75
2021/04/28 00:40:54;;;;;;;;;;;6.60;72.20;;;;;;5047860;28;19917;-75
2021/04/28 00:43:19;;;;;;;;;;;6.60;73.10;;;;;;5030632;28;19921;-75
2021/04/28 00:45:47;;;;;;;;;;;6.60;72.20;;;;;;5029518;28;20360;-75
2021/04/28 00:48:15;;;;;;;;;;;6.60;71.80;;;;;;5029209;28;19931;-75
2021/04/28 00:50:44;;;;;;;;;;;6.60;72.80;;;;;;5047292;28;20461;-75
2021/04/28 00:53:11;;;;;;;;;;;6.50;73.40;;;;;;5028935;28;19932;-75
2021/04/28 00:55:36;;;;;;;;;;;6.50;72.50;;;;;;5048172;28;20299;-75
2021/04/28 00:58:02;;;;;;;;;;;6.50;73.70;;;;;;5050085;28;19920;-75
2021/04/28 01:00:28;;;;;;;;;;;6.50;72.60;;;;;;5048239;28;19916;-75
2021/04/28 01:02:53;;;;;;;;;;;6.50;74.00;;;;;;5047515;28;19917;-75
2021/04/28 01:05:19;;;;;;;;;;;6.40;73.50;;;;;;5028551;28;21419;-75
2021/04/28 01:07:46;;;;;;;;;;;6.40;73.20;;;;;;5046413;28;19925;-74
2021/04/28 01:10:16;;;;;;;;;;;6.40;73.50;;;;;;5028782;28;19921;-75
2021/04/28 01:12:41;;;;;;;;;;;6.40;73.90;;;;;;5046181;28;19925;-75
2021/04/28 01:15:07;;;;;;;;;;;6.40;73.70;;;;;;5031538;28;19947;-75
2021/04/28 01:17:33;;;;;;;;;;;6.40;74.60;;;;;;5054748;28;19916;-75
2021/04/28 01:19:58;;;;;;;;;;;6.30;73.70;;;;;;5053966;28;19920;-75
2021/04/28 01:22:24;;;;;;;;;;;6.30;74.20;;;;;;5054088;28;19916;-75
2021/04/28 01:24:50;;;;;;;;;;;6.30;74.30;;;;;;5036570;28;21477;-75
2021/04/28 01:27:16;;;;;;;;;;;6.20;75.30;;;;;;5018809;28;19917;-75
2021/04/28 01:29:44;;;;;;;;;;;6.20;75.20;;;;;;5054210;28;19921;-75
2021/04/28 01:32:14;;;;;;;;;;;6.20;75.30;;;;;;5054323;28;20247;-75
2021/04/28 01:34:42;;;;;;;;;;;6.20;73.90;;;;;;5053381;28;19921;-75
2021/04/28 01:37:07;;;;;;;;;;;6.20;74.80;;;;;;5053423;28;19928;-75
2021/04/28 01:39:33;;;;;;;;;;;6.20;74.30;;;;;;5036379;28;19920;-75
2021/04/28 01:41:58;;;;;;;;;;;6.20;74.70;;;;;;5052770;28;19927;-75
2021/04/28 01:44:24;;;;;;;;;;;6.10;74.30;;;;;;5053608;28;19921;-75
2021/04/28 01:46:52;;;;;;;;;;;6.20;74.50;;;;;;5052152;28;19913;-76
2021/04/28 01:49:17;;;;;;;;;;;6.10;74.50;;;;;;5053731;28;19932;-75
2021/04/28 01:51:45;;;;;;;;;;;6.10;74.30;;;;;;5053581;28;19916;-75
2021/04/28 01:54:14;;;;;;;;;;;6.10;74.80;;;;;;5052785;28;20008;-75
2021/04/28 01:56:42;;;;;;;;;;;6.00;75.60;;;;;;5054543;28;20786;-75
2021/04/28 01:59:07;;;;;;;;;;;6.00;75.10;;;;;;5018123;28;19956;-75
2021/04/28 02:01:33;;;;;;;;;;;6.00;76.10;;;;;;5052555;28;20071;-75
2021/04/28 02:03:58;;;;;;;;;;;6.00;75.90;;;;;;5034917;28;20339;-75
2021/04/28 02:06:24;;;;;;;;;;;5.90;76.50;;;;;;5035969;28;20024;-73
2021/04/28 02:08:51;;;;;;;;;;;6.00;74.60;;;;;;5036751;28;19978;-75
2021/04/28 02:11:19;;;;;;;;;;;6.00;75.40;;;;;;5054398;28;20002;-75
2021/04/28 02:13:45;;;;;;;;;;;5.90;76.10;;;;;;5052705;28;20421;-75
2021/04/28 02:16:13;;;;;;;;;;;5.90;77.20;;;;;;5035873;28;19927;-75
2021/04/28 02:18:39;;;;;;;;;;;5.90;77.50;;;;;;5036789;28;19917;-75
2021/04/28 02:21:04;;;;;;;;;;;5.80;76.00;;;;;;5053803;28;19938;-75
2021/04/28 02:23:30;;;;;;;;;;;5.90;76.60;;;;;;5034661;28;20346;-75
2021/04/28 02:25:56;;;;;;;;;;;5.90;75.60;;;;;;5033308;28;19916;-75
2021/04/28 02:28:22;;;;;;;;;;;5.90;76.40;;;;;;5049825;28;19920;-75
2021/04/28 02:30:49;;;;;;;;;;;5.80;75.40;;;;;;5051327;28;19973;-75
2021/04/28 02:33:16;;;;;;;;;;;5.80;76.50;;;;;;5049535;28;19947;-75
2021/04/28 02:35:41;;;;;;;;;;;5.70;78.40;;;;;;5032697;28;20400;-75
2021/04/28 02:38:26;;;;;;;;;;;5.70;76.30;;;;;;5032708;28;19925;-75
2021/04/28 02:40:54;;;;;;;;;;;5.70;76.60;;;;;;5034133;28;19966;-75
2021/04/28 02:43:22;;;;;;;;;;;5.70;77.30;;;;;;5049139;28;19925;-75
2021/04/28 02:45:50;;;;;;;;;;;5.70;77.00;;;;;;5032021;28;19920;-75
2021/04/28 02:48:16;;;;;;;;;;;5.70;77.80;;;;;;5031892;28;19920;-75
2021/04/28 02:50:42;;;;;;;;;;;5.70;77.00;;;;;;5031544;28;20251;-75
2021/04/28 02:53:08;;;;;;;;;;;5.70;77.20;;;;;;5050736;28;19924;-75
2021/04/28 02:55:34;;;;;;;;;;;5.60;78.60;;;;;;5032223;28;20029;-75
2021/04/28 02:57:59;;;;;;;;;;;5.60;77.60;;;;;;5032650;28;19978;-75
2021/04/28 03:00:27;;;;;;;;;;;5.60;78.60;;;;;;5030549;28;19920;-75
2021/04/28 03:02:53;;;;;;;;;;;5.60;77.60;;;;;;5031112;28;19921;-75
2021/04/28 03:05:20;;;;;;;;;;;5.60;77.30;;;;;;5030923;28;19963;-75
2021/04/28 03:07:47;;;;;;;;;;;5.60;77.40;;;;;;5048951;28;19925;-76
2021/04/28 03:10:13;;;;;;;;;;;5.50;78.60;;;;;;5049555;28;19974;-75
2021/04/28 03:12:39;;;;;;;;;;;5.60;79.10;;;;;;5049086;28;19920;-75
2021/04/28 03:15:06;;;;;;;;;;;5.60;76.00;;;;;;5031429;28;19929;-75
2021/04/28 03:17:31;;;;;;;;;;;5.50;79.20;;;;;;5050009;28;19927;-75
2021/04/28 03:19:57;;;;;;;;;;;5.50;78.20;;;;;;5048551;28;20316;-75
2021/04/28 03:22:22;;;;;;;;;;;5.50;78.60;;;;;;5021738;28;20053;-75
2021/04/28 03:24:48;;;;;;;;;;;5.50;77.60;;;;;;5048986;28;19993;-75
2021/04/28 03:27:14;;;;;;;;;;;5.50;77.40;;;;;;5010731;28;19927;-75
2021/04/28 03:29:40;;;;;;;;;;;5.50;79.60;;;;;;5048332;28;20767;-75
2021/04/28 03:32:05;;;;;;;;;;;5.40;81.00;;;;;;5049165;28;19924;-75
2021/04/28 03:34:31;;;;;;;;;;;5.40;80.00;;;;;;5048352;28;19920;-75
2021/04/28 03:36:57;;;;;;;;;;;5.40;80.70;;;;;;5027956;28;19920;-75
2021/04/28 03:39:22;;;;;;;;;;;5.40;79.20;;;;;;5048324;28;19916;-74
2021/04/28 03:41:50;;;;;;;;;;;5.40;80.90;;;;;;5049220;28;20347;-75
2021/04/28 03:44:16;;;;;;;;;;;5.40;80.90;;;;;;5030074;28;19917;-75
2021/04/28 03:46:44;;;;;;;;;;;5.30;81.90;;;;;;5047957;28;19921;-75
2021/04/28 03:49:09;;;;;;;;;;;5.30;81.80;;;;;;5032469;28;19977;-75
2021/04/28 03:51:37;;;;;;;;;;;5.30;82.50;;;;;;5048654;28;19920;-75
2021/04/28 03:54:03;;;;;;;;;;;5.30;82.80;;;;;;5030237;28;21781;-75
2021/04/28 03:56:28;;;;;;;;;;;5.30;83.00;;;;;;5031452;28;19917;-75
2021/04/28 03:58:56;;;;;;;;;;;5.20;83.10;;;;;;5049303;28;19979;-75
2021/04/28 04:01:24;;;;;;;;;;;5.20;83.00;;;;;;5030757;28;20322;-75
2021/04/28 04:03:49;;;;;;;;;;;5.30;83.80;;;;;;5030911;28;20304;-75
2021/04/28 04:06:15;;;;;;;;;;;5.30;83.30;;;;;;5031737;28;19920;-75
2021/04/28 04:08:40;;;;;;;;;;;5.20;84.20;;;;;;5027866;28;19928;-75
2021/04/28 04:11:06;;;;;;;;;;;5.30;83.80;;;;;;5020881;28;19979;-75
2021/04/28 04:13:32;;;;;;;;;;;5.20;84.10;;;;;;5048974;28;19925;-75
2021/04/28 04:15:58;;;;;;;;;;;5.20;83.80;;;;;;5048699;28;19921;-75
2021/04/28 04:18:25;;;;;;;;;;;5.20;85.90;;;;;;5047770;28;19921;-75
2021/04/28 04:20:51;;;;;;;;;;;5.20;84.50;;;;;;5048599;28;19920;-75
2021/04/28 04:23:19;;;;;;;;;;;5.20;84.90;;;;;;5029200;28;19970;-75
2021/04/28 04:25:44;;;;;;;;;;;5.20;83.80;;;;;;5048515;28;20008;-75
2021/04/28 04:28:10;;;;;;;;;;;5.30;84.00;;;;;;5029898;28;19973;-75
2021/04/28 04:30:35;;;;;;;;;;;5.30;83.50;;;;;;5002559;28;19920;-75
2021/04/28 04:33:01;;;;;;;;;;;5.30;83.90;;;;;;5047472;28;19925;-75
2021/04/28 04:35:27;;;;;;;;;;;5.20;85.30;;;;;;5030341;28;19927;-75
2021/04/28 04:37:52;;;;;;;;;;;5.20;84.60;;;;;;5046525;28;19917;-75
2021/04/28 04:40:18;;;;;;;;;;;5.30;83.30;;;;;;5048081;28;19921;-75
2021/04/28 04:42:43;;;;;;;;;;;5.30;83.00;;;;;;5047129;28;19923;-75
2021/04/28 04:45:12;;;;;;;;;;;5.30;86.50;;;;;;5029594;28;20472;-75
2021/04/28 04:47:38;;;;;;;;;;;5.30;87.00;;;;;;5030806;28;19931;-75
2021/04/28 04:50:06;;;;;;;;;;;5.30;86.80;;;;;;5029230;28;20435;-75
2021/04/28 04:52:32;;;;;;;;;;;5.30;86.50;;;;;;5047582;28;19941;-76
2021/04/28 04:54:59;;;;;;;;;;;5.30;88.10;;;;;;5030145;28;19920;-75
2021/04/28 04:57:28;;;;;;;;;;;5.30;87.90;;;;;;5047997;28;19929;-75
2021/04/28 04:59:53;;;;;;;;;;;5.40;88.80;;;;;;5028773;28;19966;-75
2021/04/28 05:02:19;;;;;;;;;;;5.40;88.60;;;;;;5047251;28;20055;-75
2021/04/28 05:04:44;;;;;;;;;;;5.40;87.70;;;;;;5047909;28;19917;-75
2021/04/28 05:07:10;;;;;;;;;;;5.50;89.30;;;;;;5047640;28;19929;-75
2021/04/28 05:09:37;;;;;;;;;;;5.50;89.00;;;;;;5027077;28;19916;-75
2021/04/28 05:12:03;;;;;;;;;;;5.50;90.20;;;;;;5047337;28;20300;-75
2021/04/28 05:14:29;;;;;;;;;;;5.60;88.20;;;;;;5046704;28;19925;-76
2021/04/28 05:16:54;;;;;;;;;;;5.60;90.40;;;;;;5046586;28;20019;-76
2021/04/28 05:19:20;;;;;;;;;;;5.60;91.50;;;;;;5029716;28;19931;-76
2021/04/28 05:21:45;;;;;;;;;;;5.60;91.70;;;;;;5045753;28;19943;-76
2021/04/28 05:24:11;;;;;;;;;;;5.70;90.70;;;;;;5029054;28;19932;-76
2021/04/28 05:26:36;;;;;;;;;;;5.80;91.00;;;;;;5048135;28;19948;-75
2021/04/28 05:29:02;;;;;;;;;;;5.90;91.60;;;;;;5028470;28;19921;-76
2021/04/28 05:31:28;;;;;;;;;;;5.90;91.20;;;;;;5048612;28;19924;-76
2021/04/28 05:33:53;;;;;;;;;;;5.90;90.30;;;;;;5047754;28;19920;-76
2021/04/28 05:36:19;;;;;;;;;;;6.00;88.70;;;;;;5045454;28;19928;-76
2021/04/28 05:38:44;;;;;;;;;;;6.10;88.80;;;;;;5046250;28;19920;-76
2021/04/28 05:41:10;;;;;;;;;;;6.10;87.40;;;;;;5046820;28;19924;-76
2021/04/28 05:43:38;;;;;;;;;;;6.30;88.80;;;;;;5046853;28;21458;-75
2021/04/28 05:46:08;;;;;;;;;;;6.30;86.80;;;;;;5030406;28;20593;-76
2021/04/28 05:48:34;;;;;;;;;;;6.40;86.80;;;;;;5047556;28;19921;-75
2021/04/28 05:50:59;;;;;;;;;;;6.50;89.50;;;;;;5030352;28;19916;-75
2021/04/28 05:53:25;;;;;;;;;;;6.60;87.00;;;;;;5047038;28;19952;-75
2021/04/28 05:55:53;;;;;;;;;;;6.60;86.90;;;;;;5029455;28;19916;-75
2021/04/28 05:58:23;;;;;;;;;;;6.70;85.80;;;;;;5047498;28;19923;-75
2021/04/28 06:00:50;;;;;;;;;;;6.80;84.10;;;;;;5046306;28;19972;-75
2021/04/28 06:03:16;;;;;;;;;;;6.90;85.00;;;;;;5050259;28;20667;-75
2021/04/28 06:05:44;;;;;;;;;;;7.00;83.90;;;;;;5014460;28;19920;-75
2021/04/28 06:08:12;;;;;;;;;;;7.10;82.00;;;;;;5051509;28;20353;-75
2021/04/28 06:10:40;;;;;;;;;;;7.20;81.50;;;;;;5049699;28;19921;-75
2021/04/28 06:13:05;;;;;;;;;;;7.30;81.50;;;;;;5030191;28;20423;-75
2021/04/28 06:15:36;;;;;;;;;;;7.40;81.30;;;;;;5050533;28;19925;-75
2021/04/28 06:18:05;;;;;;;;;;;7.50;80.40;;;;;;5049741;28;19925;-76
2021/04/28 06:20:31;;;;;;;;;;;7.60;80.30;;;;;;5051616;28;20408;-76
2021/04/28 06:22:56;;;;;;;;;;;7.70;77.80;;;;;;5031527;28;19999;-76
2021/04/28 06:25:22;;;;;;;;;;;7.80;77.90;;;;;;5049678;28;19920;-76
2021/04/28 06:27:50;;;;;;;;;;;7.90;79.90;;;;;;5032235;28;19924;-76
2021/04/28 06:30:15;;;;;;;;;;;8.00;77.10;;;;;;5029680;28;19949;-76
2021/04/28 06:32:41;;;;;;;;;;;8.20;75.00;;;;;;5047898;28;20019;-78
2021/04/28 06:35:08;;;;;;;;;;;8.40;75.80;;;;;;5030174;28;19944;-78
2021/04/28 06:37:34;;;;;;;;;;;8.50;75.60;;;;;;5032033;28;19916;-76
2021/04/28 06:39:59;;;;;;;;;;;8.50;74.50;;;;;;5048830;28;19974;-75
2021/04/28 06:42:25;;;;;;;;;;;8.70;76.00;;;;;;5051134;28;21268;-76
2021/04/28 06:44:53;;;;;;;;;;;8.70;76.40;;;;;;5047343;28;20588;-76
2021/04/28 06:47:20;;;;;;;;;;;8.80;76.30;;;;;;5046593;28;19923;-76
2021/04/28 06:49:46;;;;;;;;;;;8.90;76.60;;;;;;5044920;28;20847;-76
2021/04/28 06:52:14;;;;;;;;;;;8.90;74.50;;;;;;5044750;28;19920;-76
2021/04/28 06:54:39;;;;;;;;;;;9.00;72.90;;;;;;5044583;28;19932;-76
2021/04/28 06:57:05;;;;;;;;;;;9.00;74.00;;;;;;5044861;28;19920;-76
2021/04/28 06:59:33;;;;;;;;;;;9.10;73.80;;;;;;5045978;28;19943;-79
2021/04/28 07:01:59;;;;;;;;;;;9.30;70.60;;;;;;5030535;28;20011;-78
2021/04/28 07:04:24;;;;;;;;;;;9.40;71.90;;;;;;5045056;28;19927;-76
2021/04/28 07:06:50;;;;;;;;;;;9.50;72.00;;;;;;5046195;28;19925;-78
2021/04/28 07:09:15;;;;;;;;;;;9.50;71.30;;;;;;5029032;28;19916;-76
2021/04/28 07:11:44;;;;;;;;;;;9.60;71.40;;;;;;5044017;28;19978;-76
2021/04/28 07:14:12;;;;;;;;;;;9.70;69.70;;;;;;5011350;28;19931;-76
2021/04/28 07:16:40;;;;;;;;;;;9.80;71.20;;;;;;5016154;28;19928;-76
2021/04/28 07:19:06;;;;;;;;;;;9.90;69.60;;;;;;5045154;28;19947;-76
2021/04/28 07:21:33;;;;;;;;;;;9.90;69.00;;;;;;5045444;28;19920;-76
2021/04/28 07:24:02;;;;;;;;;;;10.00;71.30;;;;;;5046098;28;20022;-76
2021/04/28 07:26:27;;;;;;;;;;;10.10;71.10;;;;;;5029043;28;19920;-76
2021/04/28 07:28:55;;;;;;;;;;;10.20;70.00;;;;;;5026026;28;19985;-81
2021/04/28 07:31:21;;;;;;;;;;;10.30;68.40;;;;;;5043817;28;19944;-78
2021/04/28 07:33:46;;;;;;;;;;;10.40;69.70;;;;;;5044093;28;20315;-77
2021/04/28 07:36:12;;;;;;;;;;;10.40;71.30;;;;;;5026041;28;19967;-77
2021/04/28 07:38:40;;;;;;;;;;;10.60;69.10;;;;;;5011942;28;19952;-76
2021/04/28 07:41:06;;;;;;;;;;;10.70;66.60;;;;;;5028011;28;20345;-77
2021/04/28 07:43:34;;;;;;;;;;;10.90;68.00;;;;;;5044935;28;19995;-77
2021/04/28 07:46:00;;;;;;;;;;;10.90;65.60;;;;;;5043692;28;20777;-77
2021/04/28 07:48:26;;;;;;;;;;;11.00;65.80;;;;;;5044512;28;19993;-76
2021/04/28 07:50:52;;;;;;;;;;;11.20;66.90;;;;;;5044404;28;19921;-77
2021/04/28 07:53:19;;;;;;;;;;;11.20;65.40;;;;;;5045311;28;20468;-76
2021/04/28 07:55:47;;;;;;;;;;;11.40;67.70;;;;;;5044969;28;19921;-77
2021/04/28 07:58:16;;;;;;;;;;;11.50;66.20;;;;;;5044850;28;19929;-77
2021/04/28 08:00:42;;;;;;;;;;;11.60;66.20;;;;;;5026672;28;20281;-77
2021/04/28 08:03:07;;;;;;;;;;;11.80;65.90;;;;;;5042346;28;19916;-75
2021/04/28 08:05:33;;;;;;;;;;;12.00;64.90;;;;;;5043030;28;19921;-77
2021/04/28 08:08:01;;;;;;;;;;;12.10;65.60;;;;;;5027769;28;19939;-75
2021/04/28 08:10:28;;;;;;;;;;;12.20;67.10;;;;;;5043227;28;19921;-75
2021/04/28 08:12:54;;;;;;;;;;;12.40;64.90;;;;;;5014357;28;20414;-75
2021/04/28 08:15:20;;;;;;;;;;;12.70;67.30;;;;;;5042930;28;19917;-76
2021/04/28 08:17:45;;;;;;;;;;;12.90;66.10;;;;;;5025537;28;20598;-75
2021/04/28 08:20:11;;;;;;;;;;;13.10;64.10;;;;;;5026789;28;19994;-75
2021/04/28 08:22:37;;;;;;;;;;;13.30;64.60;;;;;;5027472;28;19927;-78
2021/04/28 08:25:03;;;;;;;;;;;13.40;63.80;;;;;;5014018;28;19916;-78
2021/04/28 08:27:29;;;;;;;;;;;13.70;66.60;;;;;;5011692;28;19928;-78
2021/04/28 08:29:56;;;;;;;;;;;13.80;61.80;;;;;;5043453;28;20484;-78
2021/04/28 08:32:21;;;;;;;;;;;14.00;62.10;;;;;;5044459;28;20510;-77
2021/04/28 08:34:47;;;;;;;;;;;14.20;64.10;;;;;;5026328;28;19977;-78
2021/04/28 08:37:12;;;;;;;;;;;14.30;62.20;;;;;;5044267;28;19920;-77
2021/04/28 08:39:38;;;;;;;;;;;14.40;59.30;;;;;;5044117;28;19921;-78
2021/04/28 08:42:04;;;;;;;;;;;14.50;60.70;;;;;;5027071;28;19930;-77
2021/04/28 08:44:30;;;;;;;;;;;14.70;62.40;;;;;;5044000;28;19966;-78
2021/04/28 08:46:58;;;;;;;;;;;14.80;62.00;;;;;;5026174;28;19928;-78
2021/04/28 08:49:24;;;;;;;;;;;14.90;59.60;;;;;;5014652;28;20278;-77
2021/04/28 08:51:50;;;;;;;;;;;15.10;61.40;;;;;;5026287;28;20350;-77
2021/04/28 08:54:16;;;;;;;;;;;15.30;60.40;;;;;;5028759;28;19924;-76
2021/04/28 08:56:49;;;;;;;;;;;15.30;59.70;;;;;;5027535;28;19931;-76
2021/04/28 08:59:20;;;;;;;;;;;15.40;59.60;;;;;;5029098;28;19923;-77
2021/04/28 09:01:48;;;;;;;;;;;15.20;57.20;;;;;;5045962;28;19924;-77
2021/04/28 09:04:18;;;;;;;;;;;15.50;62.70;;;;;;5046620;28;19921;-78
2021/04/28 09:06:43;;;;;;;;;;;15.40;57.90;;;;;;5025575;28;20026;-79
2021/04/28 09:09:10;;;;;;;;;;;15.60;61.10;;;;;;5043844;28;20308;-77
2021/04/28 09:11:36;;;;;;;;;;;15.80;60.00;;;;;;5045483;28;19917;-78
2021/04/28 09:14:06;;;;;;;;;;;15.80;58.60;;;;;;5045152;28;20467;-78
2021/04/28 09:16:34;;;;;;;;;;;15.90;56.90;;;;;;5026155;28;19927;-79
2021/04/28 09:19:01;;;;;;;;;;;16.00;60.20;;;;;;5044705;28;19928;-78
2021/04/28 09:21:45;;;;;;;;;;;16.10;58.40;;;;;;5019224;28;19917;-78
2021/04/28 09:24:21;;;;;;;;;;;16.00;61.30;;;;;;5046478;28;19921;-78
2021/04/28 09:26:46;;;;;;;;;;;16.20;54.90;;;;;;5041813;28;19964;-78
2021/04/28 09:29:15;;;;;;;;;;;16.30;59.20;;;;;;5017697;28;20020;-78
2021/04/28 09:31:55;;;;;;;;;;;16.40;62.50;;;;;;5045222;28;19921;-78
2021/04/28 09:34:49;;;;;;;;;;;16.40;57.10;;;;;;5044988;28;19925;-78
2021/04/28 09:37:16;;;;;;;;;;;16.60;58.00;;;;;;5022497;28;19924;-77
2021/04/28 09:39:43;;;;;;;;;;;16.70;58.40;;;;;;5047816;28;19978;-77
2021/04/28 09:42:09;;;;;;;;;;;16.60;55.10;;;;;;5049679;28;20387;-77
2021/04/28 09:44:36;;;;;;;;;;;16.90;61.50;;;;;;5047693;28;20015;-77
2021/04/28 09:47:08;;;;;;;;;;;16.80;54.30;;;;;;5048333;28;19921;-76
2021/04/28 09:49:52;;;;;;;;;;;17.10;56.70;;;;;;5048052;28;20040;-78
2021/04/28 09:52:20;;;;;;;;;;;17.20;57.00;;;;;;5048831;28;19960;-79
2021/04/28 09:54:47;;;;;;;;;;;17.40;57.80;;;;;;5049683;28;19927;-79
2021/04/28 09:57:16;;;;;;;;;;;17.40;55.50;;;;;;5049494;28;19920;-79
2021/04/28 09:59:42;;;;;;;;;;;17.40;55.50;;;;;;5046236;28;19920;-78
2021/04/28 10:02:10;;;;;;;;;;;17.50;59.60;;;;;;5048717;28;21446;-78
2021/04/28 10:04:36;;;;;;;;;;;17.50;55.80;;;;;;5049268;28;20337;-79
2021/04/28 10:07:01;;;;;;;;;;;17.40;54.40;;;;;;5044470;28;19948;-77
2021/04/28 10:09:36;;;;;;;;;;;17.70;57.20;;;;;;5048528;28;20035;-77
2021/04/28 10:12:02;;;;;;;;;;;17.70;57.30;;;;;;5048289;28;19967;-77
2021/04/28 10:14:28;;;;;;;;;;;17.50;53.60;;;;;;5050884;28;19927;-77
2021/04/28 10:16:54;;;;;;;;;;;17.30;54.20;;;;;;5030830;28;19924;-77
2021/04/28 10:19:21;;;;;;;;;;;17.40;54.80;;;;;;5047625;28;20369;-77
2021/04/28 10:21:47;;;;;;;;;;;17.50;57.80;;;;;;5032211;28;19920;-78
2021/04/28 10:24:12;;;;;;;;;;;17.70;60.40;;;;;;5031212;28;19920;-77
2021/04/28 10:26:38;;;;;;;;;;;18.00;57.00;;;;;;5048993;28;20003;-78
2021/04/28 10:29:03;;;;;;;;;;;17.80;53.40;;;;;;5015054;28;19923;-77
2021/04/28 10:31:29;;;;;;;;;;;17.90;55.00;;;;;;5022649;28;19994;-78
2021/04/28 10:33:57;;;;;;;;;;;17.70;54.10;;;;;;5047454;28;20006;-77
2021/04/28 10:36:23;;;;;;;;;;;18.00;57.70;;;;;;5030635;28;19924;-78
2021/04/28 10:38:50;;;;;;;;;;;18.20;54.70;;;;;;5034452;28;20357;-77
2021/04/28 10:41:35;;;;;;;;;;;18.30;55.80;;;;;;5048002;28;20021;-77
2021/04/28 10:44:02;;;;;;;;;;;18.70;55.20;;;;;;5047553;28;19921;-78
2021/04/28 10:46:28;;;;;;;;;;;18.50;52.40;;;;;;5047791;28;20019;-78
2021/04/28 10:48:54;;;;;;;;;;;18.20;50.00;;;;;;5048194;28;20502;-77
2021/04/28 10:51:38;;;;;;;;;;;18.50;55.40;;;;;;5030581;28;19917;-77
2021/04/28 10:54:26;;;;;;;;;;;18.30;50.60;;;;;;5029694;28;19936;-76
2021/04/28 10:56:57;;;;;;;;;;;18.60;53.30;;;;;;5044730;28;19921;-77
2021/04/28 10:59:36;;;;;;;;;;;18.70;57.90;;;;;;5048585;28;20301;-75
2021/04/28 11:02:11;;;;;;;;;;;18.80;55.70;;;;;;5047987;28;19970;-77
2021/04/28 11:04:37;;;;;;;;;;;18.70;50.90;;;;;;5028225;28;19982;-79
2021/04/28 11:07:02;;;;;;;;;;;18.70;51.40;;;;;;5019398;28;19930;-79
2021/04/28 11:09:28;;;;;;;;;;;19.00;53.00;;;;;;5023684;28;20008;-79
2021/04/28 11:11:54;;;;;;;;;;;19.30;53.30;;;;;;5008263;28;19923;-79
2021/04/28 11:14:22;;;;;;;;;;;19.30;51.60;;;;;;5007883;28;19921;-79
2021/04/28 11:16:51;;;;;;;;;;;19.20;49.80;;;;;;4987635;28;19932;-78
2021/04/28 11:19:20;;;;;;;;;;;19.70;52.70;;;;;;5004788;28;19921;-78
2021/04/28 11:21:49;;;;;;;;;;;19.80;54.30;;;;;;5004358;28;19921;-81
2021/04/28 11:24:15;;;;;;;;;;;19.40;47.60;;;;;;5007690;28;19956;-78
2021/04/28 11:26:49;;;;;;;;;;;20.00;54.40;;;;;;5008566;28;20345;-78
2021/04/28 11:29:16;;;;;;;;;;;20.20;49.60;;;;;;5008834;28;20012;-79
2021/04/28 11:31:46;;;;;;;;;;;20.40;50.30;;;;;;5008532;28;20362;-79
2021/04/28 11:34:24;;;;;;;;;;;20.40;49.30;;;;;;5007706;28;19921;-78
2021/04/28 11:36:50;;;;;;;;;;;20.80;52.70;;;;;;5007725;28;19921;-79
2021/04/28 11:39:34;;;;;;;;;;;20.70;47.00;;;;;;5006001;28;19922;-79
2021/04/28 11:42:03;;;;;;;;;;;20.70;48.70;;;;;;5006516;28;19922;-80
2021/04/28 11:44:29;;;;;;;;;;;20.90;49.80;;;;;;5007868;28;19964;-80
2021/04/28 11:46:57;;;;;;;;;;;21.00;46.80;;;;;;5005928;28;20020;-82
2021/04/28 11:49:22;;;;;;;;;;;21.30;47.40;;;;;;5005949;28;19921;-79
2021/04/28 11:51:56;;;;;;;;;;;21.30;48.40;;;;;;5006686;28;19919;-79
2021/04/28 11:54:21;;;;;;;;;;;21.90;49.00;;;;;;5021113;28;19921;-81
2021/04/28 11:56:48;;;;;;;;;;;21.90;45.50;;;;;;5005289;28;20353;-80
2021/04/28 11:59:26;;;;;;;;;;;22.40;50.40;;;;;;5006960;28;19921;-81
2021/04/28 12:01:55;;;;;;;;;;;22.40;45.10;;;;;;5006347;28;20602;-80
2021/04/28 12:04:30;;;;;;;;;;;22.40;46.00;;;;;;5006871;28;19999;-81
2021/04/28 12:06:58;;;;;;;;;;;22.60;46.30;;;;;;5025914;28;19924;-83
2021/04/28 12:09:39;;;;;;;;;;;22.10;44.50;;;;;;5028322;28;19924;-78
2021/04/28 12:12:07;;;;;;;;;;;22.10;44.40;;;;;;5028096;28;19948;-81
2021/04/28 12:14:33;;;;;;;;;;;21.90;42.90;;;;;;5026774;28;20404;-81
2021/04/28 12:16:58;;;;;;;;;;;21.90;44.90;;;;;;5028347;28;19921;-81
2021/04/28 12:19:24;;;;;;;;;;;21.90;43.50;;;;;;5026109;28;19917;-80
2021/04/28 12:22:06;;;;;;;;;;;22.20;42.10;;;;;;5025354;28;19971;-81
2021/04/28 12:24:42;;;;;;;;;;;22.30;43.30;;;;;;5024056;28;20015;-80
2021/04/28 12:27:11;;;;;;;;;;;22.50;45.10;;;;;;5024863;28;21727;-83
2021/04/28 12:29:37;;;;;;;;;;;22.40;42.40;;;;;;5028561;28;20007;-81
2021/04/28 12:32:06;;;;;;;;;;;22.30;41.70;;;;;;5026954;28;19916;-81
2021/04/28 12:34:32;;;;;;;;;;;22.40;45.10;;;;;;5027567;28;20041;-81
2021/04/28 12:37:08;;;;;;;;;;;22.60;45.50;;;;;;5025381;28;20019;-81
2021/04/28 12:39:33;;;;;;;;;;;22.40;41.50;;;;;;5029069;28;19952;-80
2021/04/28 12:41:59;;;;;;;;;;;22.70;43.70;;;;;;5027757;28;20513;-81
2021/04/28 12:44:24;;;;;;;;;;;22.60;41.80;;;;;;5027543;28;19917;-80
2021/04/28 12:46:50;;;;;;;;;;;22.90;39.60;;;;;;5025938;28;20438;-80
2021/04/28 12:49:15;;;;;;;;;;;23.10;42.20;;;;;;5022701;28;19927;-79
2021/04/28 12:51:45;;;;;;;;;;;23.00;40.90;;;;;;5024840;28;20393;-80
2021/04/28 12:54:11;;;;;;;;;;;23.00;41.90;;;;;;5040233;28;20373;-80
2021/04/28 12:56:43;;;;;;;;;;;23.40;40.00;;;;;;5024321;28;20003;-79
2021/04/28 12:59:15;;;;;;;;;;;24.10;40.60;;;;;;5025178;28;20595;-79
2021/04/28 13:01:41;;;;;;;;;;;24.20;40.30;;;;;;5026438;28;19927;-79
2021/04/28 13:04:16;;;;;;;;;;;24.70;42.40;;;;;;5023423;28;19917;-80
2021/04/28 13:06:41;;;;;;;;;;;25.20;40.00;;;;;;5026612;28;19921;-80
2021/04/28 13:09:11;;;;;;;;;;;24.90;37.50;;;;;;5045982;28;20007;-80
2021/04/28 13:11:45;;;;;;;;;;;24.70;38.90;;;;;;5026648;28;19924;-80
2021/04/28 13:14:15;;;;;;;;;;;24.30;35.70;;;;;;5044522;28;19924;-80
2021/04/28 13:16:45;;;;;;;;;;;24.20;37.30;;;;;;5045377;28;19921;-79
2021/04/28 13:19:13;;;;;;;;;;;24.10;36.60;;;;;;5026263;28;19920;-80
2021/04/28 13:21:42;;;;;;;;;;;24.30;37.60;;;;;;5046043;28;20054;-80
2021/04/28 13:24:10;;;;;;;;;;;23.90;37.60;;;;;;5045646;28;20019;-81
2021/04/28 13:26:40;;;;;;;;;;;24.30;35.40;;;;;;5045415;28;19925;-80
2021/04/28 13:29:06;;;;;;;;;;;23.90;37.00;;;;;;5045610;28;19921;-77
2021/04/28 13:31:33;;;;;;;;;;;23.40;33.70;;;;;;5028308;28;19948;-79
2021/04/28 13:33:59;;;;;;;;;;;23.20;35.80;;;;;;5013366;28;20356;-80
2021/04/28 13:36:29;;;;;;;;;;;23.10;34.30;;;;;;5026086;28;20358;-79
2021/04/28 13:38:58;;;;;;;;;;;22.70;36.70;;;;;;5044988;28;20766;-79
2021/04/28 13:41:24;;;;;;;;;;;22.50;36.40;;;;;;5009566;28;19990;-81
2021/04/28 13:43:49;;;;;;;;;;;22.40;36.90;;;;;;5044881;28;20346;-79
2021/04/28 13:46:17;;;;;;;;;;;22.70;36.60;;;;;;5028783;28;19921;-79
2021/04/28 13:48:43;;;;;;;;;;;22.40;33.60;;;;;;5046125;28;19982;-79
2021/04/28 13:51:10;;;;;;;;;;;22.30;35.60;;;;;;5014140;28;21719;-79
2021/04/28 13:53:35;;;;;;;;;;;22.40;34.90;;;;;;5026927;28;19974;-79
2021/04/28 13:56:03;;;;;;;;;;;22.10;30.50;;;;;;5045834;28;19925;-79
2021/04/28 13:58:29;;;;;;;;;;;22.00;32.00;;;;;;5044123;28;19917;-79
2021/04/28 14:00:57;;;;;;;;;;;22.10;31.90;;;;;;5045719;28;19955;-78
2021/04/28 14:03:22;;;;;;;;;;;22.10;37.00;;;;;;5045582;28;20711;-80
2021/04/28 14:05:48;;;;;;;;;;;22.00;32.10;;;;;;5046230;28;19921;-79
2021/04/28 14:08:14;;;;;;;;;;;22.20;33.60;;;;;;5044832;28;19921;-79
2021/04/28 14:10:39;;;;;;;;;;;22.10;32.90;;;;;;5045322;28;19947;-78
2021/04/28 14:13:05;;;;;;;;;;;22.20;38.30;;;;;;5026065;28;19916;-78
2021/04/28 14:15:30;;;;;;;;;;;22.20;35.60;;;;;;5027241;28;19921;-79
2021/04/28 14:17:58;;;;;;;;;;;22.30;32.80;;;;;;5027457;28;19916;-79
2021/04/28 14:20:26;;;;;;;;;;;22.10;34.50;;;;;;5045005;28;19943;-79
2021/04/28 14:22:51;;;;;;;;;;;22.00;34.60;;;;;;5045102;28;21375;-79
2021/04/28 14:25:17;;;;;;;;;;;21.70;34.80;;;;;;5046349;28;20395;-78